createdAt,value
2023-04-19T00:02:31.740Z,6.13
2023-04-19T00:06:33.191Z,5.67
2023-04-19T00:10:35.051Z,4.90
2023-04-19T00:14:36.460Z,6.00
2023-04-19T00:18:39.465Z,5.47
2023-04-19T00:22:40.865Z,6.23
2023-04-19T00:26:42.274Z,6.47
2023-04-19T00:30:43.785Z,6.80
2023-04-19T00:34:46.685Z,6.53
2023-04-19T00:38:48.133Z,5.60
2023-04-19T00:42:49.548Z,5.27
2023-04-19T00:46:51.474Z,6.47
2023-04-19T00:50:54.732Z,5.50
2023-04-19T00:54:58.483Z,5.73
2023-04-19T00:59:00.219Z,7.07
2023-04-19T01:03:01.946Z,5.63
2023-04-19T01:07:05.293Z,5.40
2023-04-19T01:11:06.779Z,5.67
2023-04-19T01:15:09.251Z,8.83
2023-04-19T01:19:10.761Z,6.77
2023-04-19T01:23:13.632Z,5.07
2023-04-19T01:27:15.134Z,6.87
2023-04-19T01:31:16.691Z,5.70
2023-04-19T01:35:19.664Z,4.50
2023-04-19T01:39:22.957Z,4.70
2023-04-19T01:43:24.415Z,5.00
2023-04-19T01:47:25.839Z,5.33
2023-04-19T01:51:27.323Z,5.20
2023-04-19T01:55:30.242Z,6.73
2023-04-19T01:59:31.715Z,7.77
2023-04-19T02:03:33.218Z,7.17
2023-04-19T02:07:35.132Z,8.57
2023-04-19T02:11:38.416Z,7.53
2023-04-19T02:15:40.859Z,7.33
2023-04-19T02:19:42.297Z,11.30
2023-04-19T02:23:43.721Z,11.03
2023-04-19T02:27:46.494Z,9.33
2023-04-19T02:31:47.986Z,8.97
2023-04-19T02:35:49.454Z,9.00
2023-04-19T02:39:50.889Z,11.77
2023-04-19T02:43:56.142Z,10.40
2023-04-19T02:47:57.639Z,9.37
2023-04-19T02:51:59.311Z,10.23
2023-04-19T02:56:00.903Z,10.93
2023-04-19T03:00:04.644Z,13.47
2023-04-19T03:04:06.157Z,13.20
2023-04-19T03:08:08.373Z,11.53
2023-04-19T03:12:10.018Z,13.43
2023-04-19T03:16:12.797Z,14.40
2023-04-19T03:20:14.392Z,13.07
2023-04-19T03:24:15.965Z,12.60
2023-04-19T03:28:17.619Z,13.87
2023-04-19T03:32:20.420Z,16.07
2023-04-19T03:36:21.883Z,13.27
2023-04-19T03:40:23.328Z,16.37
2023-04-19T03:44:24.786Z,12.87
2023-04-19T03:48:27.545Z,14.77
2023-04-19T03:52:28.966Z,13.37
2023-04-19T03:56:30.432Z,16.67
2023-04-19T04:00:31.855Z,14.07
2023-04-19T04:04:35.524Z,12.00
2023-04-19T04:08:37.127Z,12.30
2023-04-19T04:12:38.587Z,10.90
2023-04-19T04:16:40.117Z,10.90
2023-04-19T04:20:43.355Z,10.43
2023-04-19T04:24:44.830Z,10.77
2023-04-19T04:28:46.226Z,9.87
2023-04-19T04:32:47.722Z,10.63
2023-04-19T04:36:50.576Z,11.07
2023-04-19T04:40:52.441Z,12.43
2023-04-19T04:44:54.235Z,8.90
2023-04-19T04:48:55.905Z,9.27
2023-04-19T04:52:58.673Z,9.30
2023-04-19T04:57:00.200Z,9.23
2023-04-19T05:01:01.809Z,8.60
2023-04-19T05:05:03.548Z,9.27
2023-04-19T05:09:06.411Z,8.60
2023-04-19T05:13:07.890Z,8.67
2023-04-19T05:17:09.303Z,12.57
2023-04-19T05:21:10.704Z,9.40
2023-04-19T05:25:13.522Z,10.93
2023-04-19T05:29:15.169Z,9.73
2023-04-19T05:33:16.595Z,10.67
2023-04-19T05:37:18.030Z,11.23
2023-04-19T05:41:20.898Z,10.23
2023-04-19T05:45:22.508Z,8.73
2023-04-19T05:49:24.135Z,8.53
2023-04-19T05:53:25.635Z,9.70
2023-04-19T05:57:28.397Z,11.97
2023-04-19T06:01:30.219Z,11.93
2023-04-19T06:05:31.742Z,14.17
2023-04-19T06:09:33.296Z,11.10
2023-04-19T06:13:36.142Z,9.17
2023-04-19T06:17:37.629Z,9.00
2023-04-19T06:21:39.268Z,13.27
2023-04-19T06:25:40.920Z,11.70
2023-04-19T06:29:43.681Z,11.57
2023-04-19T06:33:45.336Z,9.20
2023-04-19T06:37:46.817Z,8.37
2023-04-19T06:41:48.248Z,11.13
2023-04-19T06:45:58.026Z,10.07
2023-04-19T06:50:00.443Z,9.30
2023-04-19T06:54:01.840Z,7.70
2023-04-19T06:58:03.315Z,8.33
2023-04-19T07:02:06.413Z,7.20
2023-04-19T07:06:07.900Z,11.70
2023-04-19T07:10:09.722Z,7.47
2023-04-19T07:14:11.228Z,7.83
2023-04-19T07:18:16.444Z,7.13
2023-04-19T07:22:17.883Z,5.87
2023-04-19T07:26:19.370Z,6.07
2023-04-19T07:30:21.226Z,7.30
2023-04-19T07:34:23.956Z,8.10
2023-04-19T07:38:25.473Z,5.67
2023-04-19T07:42:26.861Z,6.93
2023-04-19T07:46:28.325Z,6.33
2023-04-19T07:50:31.109Z,5.40
2023-04-19T07:54:32.606Z,7.43
2023-04-19T07:58:34.110Z,6.33
2023-04-19T08:02:36.607Z,5.73
2023-04-19T08:06:39.467Z,4.37
2023-04-19T08:10:40.876Z,5.37
2023-04-19T08:14:56.387Z,6.63
2023-04-19T08:19:01.296Z,4.93
2023-04-19T08:23:13.971Z,7.37
2023-04-19T08:27:22.605Z,4.50
2023-04-19T08:31:24.281Z,4.33
2023-04-19T08:35:25.902Z,4.20
2023-04-19T08:39:33.089Z,7.57
2023-04-19T08:43:36.880Z,7.63
2023-04-19T08:47:51.960Z,7.20
2023-04-19T08:51:59.275Z,6.93
2023-04-19T09:00:08.246Z,7.30
2023-04-19T09:04:34.924Z,4.90
2023-04-19T09:08:31.247Z,6.03
2023-04-19T09:12:34.299Z,4.80
2023-04-19T09:16:35.996Z,4.73
2023-04-19T09:20:38.624Z,5.17
2023-04-19T09:28:55.842Z,5.30
2023-04-19T09:32:57.327Z,5.17
2023-04-19T09:37:17.285Z,5.13
2023-04-19T09:41:31.151Z,5.77
2023-04-19T09:45:44.207Z,7.40
2023-04-19T09:49:49.085Z,3.97
2023-04-19T09:53:51.350Z,5.35
2023-04-19T09:57:53.307Z,19.98
2023-04-19T10:01:56.690Z,4.35
2023-04-19T10:06:04.223Z,4.73
2023-04-19T10:10:19.619Z,3.93
2023-04-19T10:14:24.122Z,5.28
2023-04-19T10:18:27.293Z,6.03
2023-04-19T10:22:28.775Z,4.55
2023-04-19T10:26:30.552Z,5.03
2023-04-19T10:30:32.050Z,5.95
2023-04-19T10:34:40.818Z,3.70
2023-04-19T10:38:44.066Z,7.43
2023-04-19T10:43:15.481Z,10.02
2023-04-19T10:47:40.718Z,3.72
2023-04-19T10:51:49.914Z,5.28
2023-04-19T10:55:51.354Z,3.83
2023-04-19T11:00:19.709Z,7.72
2023-04-19T11:04:23.567Z,4.55
2023-04-19T11:08:26.531Z,7.63
2023-04-19T11:12:27.968Z,7.40
2023-04-19T11:16:42.331Z,4.07
2023-04-19T11:20:52.759Z,4.00
2023-04-19T11:24:56.905Z,3.20
2023-04-19T11:28:58.348Z,4.25
2023-04-19T11:32:59.823Z,5.32
2023-04-19T11:37:01.342Z,4.70
2023-04-19T11:41:04.551Z,5.13
2023-04-19T11:45:13.242Z,6.80
2023-04-19T11:49:26.050Z,3.90
2023-04-19T11:53:28.487Z,3.67
2023-04-19T11:57:31.228Z,5.10
2023-04-19T12:01:32.651Z,3.55
2023-04-19T12:05:34.103Z,4.55
2023-04-19T12:09:36.362Z,4.65
2023-04-19T12:13:39.221Z,3.50
2023-04-19T12:17:57.444Z,5.13
2023-04-19T12:22:08.099Z,7.22
2023-04-19T12:26:09.484Z,5.03
2023-04-19T12:30:13.181Z,3.87
2023-04-19T12:34:14.820Z,6.83
2023-04-19T12:38:16.316Z,5.27
2023-04-19T12:42:18.105Z,8.37
2023-04-19T12:46:20.948Z,5.67
2023-04-19T12:50:22.577Z,4.60
2023-04-19T12:54:24.191Z,6.03
2023-04-19T12:58:25.896Z,4.10
2023-04-19T13:02:28.809Z,6.00
2023-04-19T13:06:30.399Z,2.93
2023-04-19T13:10:31.972Z,3.27
2023-04-19T13:14:33.675Z,3.97
2023-04-19T13:18:36.467Z,3.20
2023-04-19T13:22:37.884Z,4.87
2023-04-19T13:26:39.441Z,5.17
2023-04-19T13:30:40.946Z,3.80
2023-04-19T13:34:43.674Z,4.80
2023-04-19T13:38:45.491Z,3.73
2023-04-19T13:42:46.947Z,4.13
2023-04-19T13:46:48.478Z,4.00
2023-04-19T13:50:51.693Z,4.50
2023-04-19T13:54:53.267Z,7.97
2023-04-19T13:58:54.716Z,4.37
2023-04-19T14:02:56.368Z,6.87
2023-04-19T14:06:59.360Z,5.53
2023-04-19T14:11:00.836Z,3.63
2023-04-19T14:15:02.316Z,2.43
2023-04-19T14:19:03.866Z,4.47
2023-04-19T14:23:06.735Z,6.37
2023-04-19T14:27:11.596Z,3.90
2023-04-19T14:31:13.337Z,5.07
2023-04-19T14:35:14.819Z,3.23
2023-04-19T14:39:17.732Z,3.40
2023-04-19T14:43:19.374Z,3.50
2023-04-19T14:47:21.501Z,2.13
2023-04-19T14:51:23.158Z,2.70
2023-04-19T14:55:26.075Z,4.57
2023-04-19T14:59:29.851Z,2.80
2023-04-19T15:03:31.688Z,5.27
2023-04-19T15:07:33.303Z,5.47
2023-04-19T15:11:36.212Z,6.25
2023-04-19T15:15:37.787Z,4.53
2023-04-19T15:19:39.313Z,3.00
2023-04-19T15:23:41.207Z,2.93
2023-04-19T15:27:44.000Z,2.97
2023-04-19T15:31:45.539Z,3.43
2023-04-19T15:35:50.751Z,4.90
2023-04-19T15:39:52.205Z,3.20
2023-04-19T15:43:55.014Z,3.40
2023-04-19T15:47:56.485Z,5.33
2023-04-19T15:51:57.925Z,4.00
2023-04-19T15:55:59.345Z,4.13
2023-04-19T16:00:02.141Z,3.60
2023-04-19T16:04:03.791Z,2.73
2023-04-19T16:08:07.365Z,4.03
2023-04-19T16:12:08.769Z,3.77
2023-04-19T16:16:11.617Z,3.03
2023-04-19T16:20:13.173Z,4.53
2023-04-19T16:24:14.634Z,5.77
2023-04-19T16:28:16.104Z,4.40
2023-04-19T16:32:18.971Z,2.67
2023-04-19T16:36:20.445Z,9.57
2023-04-19T16:40:22.672Z,5.00
2023-04-19T16:44:24.129Z,5.30
2023-04-19T16:48:26.968Z,2.37
2023-04-19T16:52:31.048Z,4.13
2023-04-19T16:56:32.464Z,9.13
2023-04-19T17:00:35.263Z,3.77
2023-04-19T17:04:38.279Z,6.13
2023-04-19T17:08:40.189Z,3.97
2023-04-19T17:12:41.729Z,4.63
2023-04-19T17:16:43.238Z,7.67
2023-04-19T17:20:46.251Z,2.43
2023-04-19T17:24:47.755Z,4.80
2023-04-19T17:28:49.256Z,5.33
2023-04-19T17:32:50.768Z,7.60
2023-04-19T17:36:53.799Z,4.80
2023-04-19T17:40:55.320Z,3.37
2023-04-19T17:44:56.750Z,3.40
2023-04-19T17:48:58.187Z,6.43
2023-04-19T17:53:00.994Z,1.73
2023-04-19T17:57:02.548Z,3.10
2023-04-19T18:01:04.391Z,2.57
2023-04-19T18:05:06.296Z,2.63
2023-04-19T18:09:09.327Z,3.50
2023-04-19T18:13:10.752Z,2.80
2023-04-19T18:17:12.140Z,4.10
2023-04-19T18:21:13.566Z,6.67
2023-04-19T18:25:16.631Z,6.53
2023-04-19T18:29:18.282Z,5.53
2023-04-19T18:33:19.793Z,5.77
2023-04-19T18:37:21.258Z,4.23
2023-04-19T18:41:24.398Z,3.47
2023-04-19T18:45:26.301Z,8.53
2023-04-19T18:49:27.792Z,6.30
2023-04-19T18:53:29.231Z,3.73
2023-04-19T18:57:34.714Z,5.10
2023-04-19T19:01:36.639Z,4.70
2023-04-19T19:05:38.240Z,4.60
2023-04-19T19:13:46.014Z,4.37
2023-04-19T19:17:49.752Z,4.53
2023-04-19T19:21:51.794Z,4.80
2023-04-19T19:25:53.149Z,2.87
2023-04-19T19:29:55.898Z,5.70
2023-04-19T19:34:13.848Z,5.17
2023-04-19T19:38:18.665Z,4.50
2023-04-19T19:42:20.299Z,4.70
2023-04-19T19:46:23.244Z,6.17
2023-04-19T19:51:02.125Z,4.13
2023-04-19T19:54:46.449Z,3.10
2023-04-19T19:58:51.371Z,4.97
2023-04-19T20:02:56.632Z,4.37
2023-04-19T20:11:02.829Z,3.60
2023-04-19T20:15:05.378Z,5.40
2023-04-19T20:19:08.304Z,3.77
2023-04-19T20:23:09.744Z,5.37
2023-04-19T20:27:11.212Z,5.80
2023-04-19T20:31:12.682Z,5.97
2023-04-19T20:35:15.588Z,4.03
2023-04-19T20:39:17.395Z,3.50
2023-04-19T20:43:18.939Z,3.50
2023-04-19T20:47:20.361Z,4.50
2023-04-19T20:51:24.179Z,4.70
2023-04-19T20:55:25.833Z,4.93
2023-04-19T20:59:27.526Z,3.40
2023-04-19T21:03:29.065Z,3.47
2023-04-19T21:07:32.006Z,8.83
2023-04-19T21:11:33.384Z,3.13
2023-04-19T21:15:35.050Z,3.57
2023-04-19T21:19:36.775Z,4.77
2023-04-19T21:23:39.762Z,7.30
2023-04-19T21:27:41.832Z,4.03
2023-04-19T21:31:43.534Z,6.63
2023-04-19T21:35:44.982Z,6.67
2023-04-19T21:39:48.132Z,5.97
2023-04-19T21:43:49.766Z,5.03
2023-04-19T21:47:51.239Z,4.73
2023-04-19T21:51:52.808Z,5.77
2023-04-19T21:55:55.732Z,2.83
2023-04-19T21:59:57.134Z,3.03
2023-04-19T22:03:58.958Z,3.17
2023-04-19T22:08:00.950Z,4.23
2023-04-19T22:12:04.287Z,5.27
2023-04-19T22:16:06.151Z,7.57
2023-04-19T22:20:08.689Z,5.90
2023-04-19T22:24:10.079Z,4.93
2023-04-19T22:28:12.858Z,5.07
2023-04-19T22:32:14.329Z,5.03
2023-04-19T22:36:15.826Z,4.27
2023-04-19T22:40:17.228Z,6.07
2023-04-19T22:44:19.946Z,5.13
2023-04-19T22:48:21.401Z,11.90
2023-04-19T22:52:23.022Z,6.83
2023-04-19T22:56:24.419Z,5.53
2023-04-19T23:00:27.112Z,4.93
2023-04-19T23:04:32.761Z,4.57
2023-04-19T23:08:35.281Z,5.27
2023-04-19T23:12:36.703Z,6.13
2023-04-19T23:16:39.661Z,10.33
2023-04-19T23:20:41.082Z,8.27
2023-04-19T23:24:42.460Z,6.30
2023-04-19T23:28:43.887Z,8.37
2023-04-19T23:32:46.605Z,4.47
2023-04-19T23:36:48.356Z,4.80
2023-04-19T23:40:49.726Z,6.73
2023-04-19T23:44:51.163Z,4.27
2023-04-19T23:48:54.557Z,4.47
2023-04-19T23:52:55.956Z,6.83
2023-04-19T23:56:57.429Z,5.67
